createdAt,value
2017-10-15T00:01:58.556Z,9.60
2017-10-15T00:04:26.002Z,11.80
2017-10-15T00:06:54.188Z,9.87
2017-10-15T00:09:21.616Z,8.10
2017-10-15T00:11:49.813Z,8.27
2017-10-15T00:14:17.249Z,8.80
2017-10-15T00:16:45.445Z,8.73
2017-10-15T00:19:12.877Z,8.13
2017-10-15T00:21:41.075Z,9.80
2017-10-15T00:24:08.499Z,8.60
2017-10-15T00:26:35.920Z,8.27
2017-10-15T00:29:04.157Z,8.77
2017-10-15T00:31:31.588Z,8.47
2017-10-15T00:33:59.021Z,8.17
2017-10-15T00:36:26.451Z,8.33
2017-10-15T00:38:53.889Z,9.97
2017-10-15T00:41:21.329Z,7.90
2017-10-15T00:43:49.529Z,7.70
2017-10-15T00:46:16.955Z,7.83
2017-10-15T00:48:45.155Z,10.37
2017-10-15T00:51:12.575Z,7.73
2017-10-15T00:53:40.009Z,8.47
2017-10-15T00:56:07.448Z,8.00
2017-10-15T00:58:34.880Z,7.90
2017-10-15T01:01:02.340Z,8.37
2017-10-15T01:03:29.760Z,6.43
2017-10-15T01:05:57.194Z,6.43
2017-10-15T01:08:24.636Z,8.10
2017-10-15T01:10:52.067Z,7.00
2017-10-15T01:13:19.492Z,8.10
2017-10-15T01:15:47.695Z,7.30
2017-10-15T01:18:15.121Z,7.50
2017-10-15T01:20:42.556Z,7.60
2017-10-15T01:23:09.988Z,7.60
2017-10-15T01:25:37.418Z,6.83
2017-10-15T01:28:04.848Z,7.57
2017-10-15T01:30:33.054Z,7.63
2017-10-15T01:33:00.480Z,8.40
2017-10-15T01:35:28.688Z,7.87
2017-10-15T01:37:56.126Z,8.13
2017-10-15T01:40:23.558Z,8.73
2017-10-15T01:42:50.983Z,6.40
2017-10-15T01:45:18.426Z,8.33
2017-10-15T01:47:45.878Z,8.50
2017-10-15T01:50:13.304Z,8.47
2017-10-15T01:52:41.500Z,7.80
2017-10-15T01:55:08.928Z,7.80
2017-10-15T01:57:37.131Z,8.60
2017-10-15T02:00:04.570Z,8.10
2017-10-15T02:02:32.771Z,7.50
2017-10-15T02:05:00.196Z,8.00
2017-10-15T02:07:28.391Z,7.40
2017-10-15T02:09:55.819Z,8.40
2017-10-15T02:12:24.026Z,8.23
2017-10-15T02:14:51.452Z,7.60
2017-10-15T02:17:19.653Z,8.60
2017-10-15T02:19:47.081Z,9.40
2017-10-15T02:22:14.519Z,8.40
2017-10-15T02:24:41.941Z,9.27
2017-10-15T02:27:09.368Z,8.30
2017-10-15T02:29:37.560Z,8.10
2017-10-15T02:32:05.027Z,7.53
2017-10-15T02:34:32.454Z,9.03
2017-10-15T02:37:00.643Z,8.13
2017-10-15T02:39:28.071Z,7.67
2017-10-15T02:41:56.277Z,8.30
2017-10-15T02:44:23.729Z,8.77
2017-10-15T02:46:51.156Z,9.17
2017-10-15T02:49:18.598Z,9.27
2017-10-15T02:51:46.024Z,8.30
2017-10-15T02:54:13.462Z,8.57
2017-10-15T02:56:40.893Z,8.03
2017-10-15T02:59:09.103Z,8.67
2017-10-15T03:01:36.521Z,7.93
2017-10-15T03:04:04.724Z,7.80
2017-10-15T03:06:32.153Z,7.23
2017-10-15T03:08:59.592Z,9.20
2017-10-15T03:11:27.023Z,9.27
2017-10-15T03:13:54.463Z,8.70
2017-10-15T03:16:21.888Z,8.10
2017-10-15T03:18:50.080Z,8.63
2017-10-15T03:21:17.515Z,8.83
2017-10-15T03:23:45.713Z,7.40
2017-10-15T03:26:13.140Z,8.23
2017-10-15T03:28:41.344Z,7.63
2017-10-15T03:31:08.765Z,7.30
2017-10-15T03:33:36.976Z,7.43
2017-10-15T03:36:04.412Z,6.80
2017-10-15T03:38:32.595Z,7.67
2017-10-15T03:41:00.028Z,7.67
2017-10-15T03:43:28.233Z,7.17
2017-10-15T03:45:55.659Z,7.80
2017-10-15T03:48:23.860Z,7.90
2017-10-15T03:50:51.295Z,6.93
2017-10-15T03:53:19.493Z,7.60
2017-10-15T03:55:46.934Z,7.03
2017-10-15T03:58:15.125Z,7.80
2017-10-15T04:00:42.552Z,8.53
2017-10-15T04:03:10.760Z,8.00
2017-10-15T04:05:38.192Z,8.50
2017-10-15T04:08:06.380Z,8.93
2017-10-15T04:10:33.816Z,9.33
2017-10-15T04:13:02.007Z,9.73
2017-10-15T04:15:29.441Z,8.37
2017-10-15T04:17:56.872Z,8.63
2017-10-15T04:20:24.305Z,9.83
2017-10-15T04:22:51.749Z,10.37
2017-10-15T04:25:19.193Z,12.07
2017-10-15T04:27:47.379Z,13.50
2017-10-15T04:30:14.821Z,14.33
2017-10-15T04:32:43.024Z,11.53
2017-10-15T04:35:10.468Z,12.07
2017-10-15T04:37:37.896Z,11.60
2017-10-15T04:40:06.092Z,13.50
2017-10-15T04:42:33.536Z,11.77
2017-10-15T04:45:01.758Z,11.30
2017-10-15T04:47:29.200Z,12.33
2017-10-15T04:49:56.633Z,13.70
2017-10-15T04:52:24.068Z,12.73
2017-10-15T04:54:52.256Z,14.00
2017-10-15T04:57:20.461Z,10.93
2017-10-15T04:59:47.892Z,13.07
2017-10-15T05:02:15.331Z,15.23
2017-10-15T05:04:43.558Z,13.13
2017-10-15T05:07:11.009Z,13.83
2017-10-15T05:09:38.439Z,12.60
2017-10-15T05:12:05.874Z,13.27
2017-10-15T05:14:34.076Z,11.00
2017-10-15T05:17:01.508Z,11.60
2017-10-15T05:19:29.718Z,12.80
2017-10-15T05:21:57.145Z,12.20
2017-10-15T05:24:25.335Z,11.17
2017-10-15T05:26:52.772Z,10.33
2017-10-15T05:29:20.968Z,10.80
2017-10-15T05:31:48.402Z,11.20
2017-10-15T05:34:16.607Z,10.63
2017-10-15T05:36:44.050Z,10.73
2017-10-15T05:39:11.479Z,10.73
2017-10-15T05:41:38.903Z,9.93
2017-10-15T05:44:06.352Z,11.40
2017-10-15T05:46:33.784Z,9.57
2017-10-15T05:49:01.239Z,10.07
2017-10-15T05:51:28.663Z,11.80
2017-10-15T05:53:56.095Z,10.60
2017-10-15T05:56:23.536Z,9.33
2017-10-15T05:58:50.968Z,9.50
2017-10-15T06:01:18.388Z,9.40
2017-10-15T06:03:45.819Z,10.30
2017-10-15T06:06:13.265Z,12.10
2017-10-15T06:08:40.700Z,10.93
2017-10-15T06:11:08.132Z,9.10
2017-10-15T06:13:36.333Z,10.43
2017-10-15T06:16:03.759Z,10.67
2017-10-15T06:18:31.969Z,12.00
2017-10-15T06:20:59.396Z,11.00
2017-10-15T06:23:27.606Z,9.70
2017-10-15T06:25:55.027Z,9.10
2017-10-15T06:28:23.242Z,10.70
2017-10-15T06:30:50.664Z,9.53
2017-10-15T06:33:18.868Z,10.93
2017-10-15T06:35:46.312Z,10.03
2017-10-15T06:38:13.769Z,9.43
2017-10-15T06:40:41.191Z,11.30
2017-10-15T06:43:09.395Z,10.20
2017-10-15T06:45:36.839Z,10.57
2017-10-15T06:48:05.045Z,11.30
2017-10-15T06:50:32.473Z,9.40
2017-10-15T06:52:59.905Z,9.83
2017-10-15T06:55:27.340Z,10.50
2017-10-15T06:57:55.548Z,10.80
2017-10-15T07:00:23.765Z,11.10
2017-10-15T07:02:51.198Z,10.00
2017-10-15T07:05:19.397Z,10.27
2017-10-15T07:07:46.818Z,8.10
2017-10-15T07:10:15.033Z,9.63
2017-10-15T07:12:42.457Z,9.50
2017-10-15T07:15:10.658Z,9.17
2017-10-15T07:17:38.080Z,8.00
2017-10-15T07:20:06.289Z,8.80
2017-10-15T07:22:33.716Z,7.70
2017-10-15T07:25:01.924Z,8.93
2017-10-15T07:27:29.345Z,8.40
2017-10-15T07:29:57.550Z,8.50
2017-10-15T07:32:24.976Z,7.67
2017-10-15T07:34:53.171Z,7.30
2017-10-15T07:37:20.599Z,8.90
2017-10-15T07:39:48.815Z,6.83
2017-10-15T07:42:16.247Z,6.80
2017-10-15T07:44:43.671Z,7.10
2017-10-15T07:47:11.109Z,6.20
2017-10-15T07:49:38.540Z,5.83
2017-10-15T07:52:05.981Z,6.30
2017-10-15T07:54:33.414Z,7.80
2017-10-15T07:57:01.617Z,6.70
2017-10-15T07:59:29.049Z,7.37
2017-10-15T08:01:57.260Z,6.90
2017-10-15T08:04:24.690Z,7.37
2017-10-15T08:06:52.119Z,7.60
2017-10-15T08:09:19.547Z,7.73
2017-10-15T08:11:46.984Z,7.43
2017-10-15T08:14:14.422Z,8.90
2017-10-15T08:16:41.858Z,8.73
2017-10-15T08:19:10.059Z,8.83
2017-10-15T08:21:37.489Z,9.20
2017-10-15T08:24:05.676Z,9.50
2017-10-15T08:26:33.116Z,10.20
2017-10-15T08:29:01.317Z,10.20
2017-10-15T08:31:28.769Z,11.37
2017-10-15T08:33:56.192Z,9.87
2017-10-15T08:36:23.625Z,11.00
2017-10-15T08:38:51.056Z,13.20
2017-10-15T08:41:18.499Z,13.13
2017-10-15T08:43:45.936Z,12.30
2017-10-15T08:46:14.172Z,12.57
2017-10-15T08:48:41.587Z,13.20
2017-10-15T08:51:09.018Z,13.33
2017-10-15T08:53:37.216Z,13.30
2017-10-15T08:56:04.648Z,13.63
2017-10-15T08:58:32.848Z,12.20
2017-10-15T09:01:00.276Z,14.00
2017-10-15T09:03:27.707Z,16.00
2017-10-15T09:05:55.145Z,14.63
2017-10-15T09:08:22.577Z,14.90
2017-10-15T09:10:50.012Z,15.07
2017-10-15T09:13:18.212Z,15.50
2017-10-15T09:15:45.640Z,15.43
2017-10-15T09:18:13.840Z,15.80
2017-10-15T09:20:41.272Z,16.23
2017-10-15T09:23:08.707Z,19.23
2017-10-15T09:25:36.136Z,17.77
2017-10-15T09:28:03.592Z,21.03
2017-10-15T09:30:31.023Z,18.90
2017-10-15T09:32:58.456Z,20.80
2017-10-15T09:35:26.655Z,19.53
2017-10-15T09:37:54.095Z,19.93
2017-10-15T09:40:22.288Z,20.83
2017-10-15T09:42:49.762Z,19.63
2017-10-15T09:45:17.180Z,22.37
2017-10-15T09:47:45.367Z,22.10
2017-10-15T09:50:13.025Z,23.07
2017-10-15T09:52:41.416Z,23.40
2017-10-15T09:55:08.878Z,23.80
2017-10-15T09:57:36.359Z,24.40
2017-10-15T10:00:03.830Z,24.60
2017-10-15T10:02:32.026Z,26.80
2017-10-15T10:04:59.454Z,27.13
2017-10-15T10:07:26.909Z,26.50
2017-10-15T10:09:54.343Z,30.37
2017-10-15T10:12:21.783Z,28.00
2017-10-15T10:14:49.277Z,28.30
2017-10-15T10:17:16.707Z,30.80
2017-10-15T10:19:44.154Z,30.37
2017-10-15T10:22:11.592Z,31.33
2017-10-15T10:24:39.793Z,29.40
2017-10-15T10:27:07.220Z,31.90
2017-10-15T10:29:35.423Z,30.90
2017-10-15T10:32:02.912Z,31.00
2017-10-15T10:34:30.342Z,32.60
2017-10-15T10:36:57.768Z,33.10
2017-10-15T10:39:25.978Z,31.17
2017-10-15T10:41:53.408Z,34.80
2017-10-15T10:44:21.610Z,31.87
2017-10-15T10:46:49.053Z,37.00
2017-10-15T10:49:16.482Z,35.90
2017-10-15T10:51:43.920Z,35.03
2017-10-15T10:54:11.356Z,33.67
2017-10-15T10:56:38.802Z,35.77
2017-10-15T10:59:06.271Z,35.20
2017-10-15T11:01:33.699Z,35.37
2017-10-15T11:04:01.120Z,35.87
2017-10-15T11:06:28.560Z,34.37
2017-10-15T11:08:57.496Z,37.40
2017-10-15T11:11:25.013Z,36.60
2017-10-15T11:13:52.441Z,35.13
2017-10-15T11:16:19.890Z,37.20
2017-10-15T11:18:47.317Z,36.73
2017-10-15T11:21:15.515Z,39.97
2017-10-15T11:23:42.947Z,35.80
2017-10-15T11:26:11.157Z,36.70
2017-10-15T11:28:38.594Z,35.07
2017-10-15T11:31:06.032Z,36.03
2017-10-15T11:33:34.224Z,37.20
2017-10-15T11:36:01.659Z,35.90
2017-10-15T11:38:29.860Z,36.63
2017-10-15T11:40:57.301Z,34.43
2017-10-15T11:43:25.503Z,36.07
2017-10-15T11:45:52.945Z,35.70
2017-10-15T11:48:20.381Z,34.50
2017-10-15T11:50:48.601Z,39.10
2017-10-15T11:53:16.029Z,40.17
2017-10-15T11:55:43.484Z,38.00
2017-10-15T11:58:10.917Z,39.77
2017-10-15T12:00:39.123Z,39.70
2017-10-15T12:03:06.555Z,40.63
2017-10-15T12:05:34.758Z,40.57
2017-10-15T12:08:02.202Z,37.63
2017-10-15T12:10:29.629Z,39.00
2017-10-15T12:12:57.065Z,38.70
2017-10-15T12:15:24.497Z,40.87
2017-10-15T12:17:51.932Z,39.17
2017-10-15T12:20:19.364Z,39.87
2017-10-15T12:22:47.569Z,39.90
2017-10-15T12:25:15.003Z,41.30
2017-10-15T12:27:43.213Z,38.20
2017-10-15T12:30:10.640Z,40.77
2017-10-15T12:32:38.845Z,38.07
2017-10-15T12:35:06.303Z,40.03
2017-10-15T12:37:33.745Z,41.13
2017-10-15T12:40:01.191Z,40.13
2017-10-15T12:42:29.396Z,39.07
2017-10-15T12:44:56.829Z,42.07
2017-10-15T12:47:24.278Z,38.03
2017-10-15T12:49:51.716Z,39.67
2017-10-15T12:52:19.923Z,38.60
2017-10-15T12:54:47.347Z,39.10
2017-10-15T12:57:15.568Z,40.83
2017-10-15T12:59:43.000Z,40.90
2017-10-15T13:02:10.435Z,41.27
2017-10-15T13:04:37.867Z,43.50
2017-10-15T13:07:08.320Z,44.50
2017-10-15T13:09:36.538Z,43.30
2017-10-15T13:12:03.953Z,42.10
2017-10-15T13:14:32.161Z,41.87
2017-10-15T13:16:59.596Z,42.70
2017-10-15T13:19:27.801Z,40.90
2017-10-15T13:21:55.236Z,40.60
2017-10-15T13:24:22.680Z,43.73
2017-10-15T13:26:50.875Z,39.97
2017-10-15T13:29:18.320Z,40.13
2017-10-15T13:31:45.753Z,42.83
2017-10-15T13:34:13.188Z,41.33
2017-10-15T13:36:40.630Z,38.30
2017-10-15T13:39:08.071Z,41.70
2017-10-15T13:41:35.497Z,40.40
2017-10-15T13:44:03.705Z,39.30
2017-10-15T13:46:31.140Z,41.30
2017-10-15T13:48:58.587Z,41.10
2017-10-15T13:51:26.788Z,40.57
2017-10-15T13:53:54.222Z,40.67
2017-10-15T13:56:22.426Z,39.10
2017-10-15T13:58:49.882Z,39.23
2017-10-15T14:01:17.364Z,38.77
2017-10-15T14:03:44.772Z,39.80
2017-10-15T14:06:12.203Z,40.90
2017-10-15T14:08:40.396Z,41.07
2017-10-15T14:11:07.845Z,41.70
2017-10-15T14:13:36.045Z,41.77
2017-10-15T14:16:03.481Z,41.20
2017-10-15T14:18:31.676Z,40.13
2017-10-15T14:20:59.122Z,40.07
2017-10-15T14:23:26.552Z,38.80
2017-10-15T14:25:53.993Z,40.83
2017-10-15T14:28:21.428Z,41.20
2017-10-15T14:30:48.859Z,39.97
2017-10-15T14:33:16.298Z,34.87
2017-10-15T14:35:44.506Z,36.20
2017-10-15T14:38:11.936Z,44.80
2017-10-15T14:40:39.377Z,40.77
2017-10-15T14:43:06.808Z,42.80
2017-10-15T14:45:34.256Z,42.17
2017-10-15T14:48:01.688Z,40.20
2017-10-15T14:50:29.124Z,40.80
2017-10-15T14:52:56.573Z,41.73
2017-10-15T14:55:24.763Z,38.27
2017-10-15T14:57:52.205Z,39.43
2017-10-15T15:00:19.644Z,39.07
2017-10-15T15:02:48.683Z,35.27
2017-10-15T15:05:16.108Z,41.33
2017-10-15T15:07:44.316Z,42.20
2017-10-15T15:10:11.753Z,38.50
2017-10-15T15:12:39.194Z,38.20
2017-10-15T15:15:07.400Z,38.73
2017-10-15T15:17:34.839Z,36.40
2017-10-15T15:20:02.268Z,36.07
2017-10-15T15:22:29.704Z,36.93
2017-10-15T15:24:57.136Z,37.00
2017-10-15T15:27:24.588Z,37.83
2017-10-15T15:29:52.035Z,41.83
2017-10-15T15:32:19.468Z,39.13
2017-10-15T15:34:47.659Z,40.30
2017-10-15T15:37:15.100Z,39.67
2017-10-15T15:39:42.536Z,41.57
2017-10-15T15:42:09.976Z,41.10
2017-10-15T15:44:37.407Z,37.00
2017-10-15T15:47:04.844Z,37.63
2017-10-15T15:49:32.287Z,39.37
2017-10-15T15:51:59.739Z,41.87
2017-10-15T15:54:27.167Z,40.00
2017-10-15T15:56:54.608Z,40.97
2017-10-15T15:59:22.080Z,39.33
2017-10-15T16:01:49.497Z,40.73
2017-10-15T16:04:16.932Z,41.30
2017-10-15T16:06:44.360Z,41.93
2017-10-15T16:09:11.801Z,40.23
2017-10-15T16:11:39.236Z,38.90
2017-10-15T16:14:06.679Z,41.03
2017-10-15T16:16:34.116Z,42.87
2017-10-15T16:19:01.557Z,38.77
2017-10-15T16:21:29.751Z,42.80
2017-10-15T16:23:57.192Z,41.17
2017-10-15T16:26:25.399Z,45.37
2017-10-15T16:28:52.864Z,41.10
2017-10-15T16:31:20.294Z,41.47
2017-10-15T16:33:47.731Z,42.87
2017-10-15T16:36:15.929Z,43.50
2017-10-15T16:38:43.363Z,45.77
2017-10-15T16:41:11.560Z,44.13
2017-10-15T16:43:38.995Z,45.37
2017-10-15T16:46:07.199Z,44.87
2017-10-15T16:48:34.652Z,43.07
2017-10-15T16:51:02.084Z,42.47
2017-10-15T16:53:30.313Z,43.53
2017-10-15T16:55:57.768Z,48.10
2017-10-15T16:58:25.207Z,48.20
2017-10-15T17:00:52.645Z,46.73
2017-10-15T17:03:20.084Z,41.50
2017-10-15T17:05:48.284Z,45.17
2017-10-15T17:08:15.710Z,40.80
2017-10-15T17:10:43.149Z,41.87
2017-10-15T17:13:10.583Z,39.77
2017-10-15T17:15:38.028Z,42.50
2017-10-15T17:18:05.466Z,42.90
2017-10-15T17:20:32.892Z,40.90
2017-10-15T17:23:01.112Z,39.20
2017-10-15T17:25:28.553Z,42.07
2017-10-15T17:27:55.976Z,42.87
2017-10-15T17:30:26.139Z,40.10
2017-10-15T17:32:53.557Z,39.67
2017-10-15T17:35:27.389Z,44.43
2017-10-15T17:37:54.815Z,42.73
2017-10-15T17:40:22.256Z,39.47
2017-10-15T17:42:49.694Z,35.73
2017-10-15T17:45:17.134Z,34.33
2017-10-15T17:47:44.565Z,40.27
2017-10-15T17:50:12.017Z,43.30
2017-10-15T17:52:40.222Z,43.67
2017-10-15T17:55:07.655Z,37.80
2017-10-15T17:57:35.090Z,42.73
2017-10-15T18:00:03.302Z,44.43
2017-10-15T18:02:30.755Z,43.00
2017-10-15T18:04:58.173Z,42.40
2017-10-15T18:07:25.603Z,45.10
2017-10-15T18:09:53.071Z,42.50
2017-10-15T18:12:20.513Z,46.73
2017-10-15T18:14:47.967Z,46.20
2017-10-15T18:17:15.420Z,50.47
2017-10-15T18:19:43.616Z,46.50
2017-10-15T18:22:11.060Z,44.37
2017-10-15T18:24:38.498Z,42.60
2017-10-15T18:27:05.947Z,43.70
2017-10-15T18:29:33.373Z,49.57
2017-10-15T18:32:01.585Z,54.90
2017-10-15T18:34:29.025Z,53.23
2017-10-15T18:36:56.468Z,54.60
2017-10-15T18:39:24.675Z,51.30
2017-10-15T18:41:52.112Z,52.10
2017-10-15T18:44:19.543Z,46.13
2017-10-15T18:46:47.755Z,43.87
2017-10-15T18:49:15.186Z,46.70
2017-10-15T18:51:43.392Z,46.30
2017-10-15T18:54:10.836Z,45.10
2017-10-15T18:56:38.282Z,50.17
2017-10-15T18:59:06.475Z,44.70
2017-10-15T19:01:33.926Z,44.63
2017-10-15T19:04:01.366Z,45.47
2017-10-15T19:06:29.569Z,40.03
2017-10-15T19:08:57.010Z,42.70
2017-10-15T19:11:24.439Z,41.87
2017-10-15T19:13:52.653Z,42.77
2017-10-15T19:16:20.089Z,42.80
2017-10-15T19:18:48.288Z,43.10
2017-10-15T19:21:15.725Z,39.07
2017-10-15T19:23:43.181Z,44.80
2017-10-15T19:26:10.607Z,48.70
2017-10-15T19:28:38.064Z,51.40
2017-10-15T19:31:05.492Z,49.10
2017-10-15T19:33:32.945Z,40.03
2017-10-15T19:36:00.379Z,43.13
2017-10-15T19:38:27.816Z,42.40
2017-10-15T19:40:55.250Z,37.70
2017-10-15T19:43:22.688Z,41.77
2017-10-15T19:45:50.121Z,40.60
2017-10-15T19:48:17.562Z,38.23
2017-10-15T19:50:44.999Z,35.67
2017-10-15T19:53:13.203Z,41.40
2017-10-15T19:55:40.636Z,42.60
2017-10-15T19:58:08.076Z,43.93
2017-10-15T20:00:36.281Z,37.97
2017-10-15T20:03:03.718Z,38.80
2017-10-15T20:05:31.924Z,41.10
2017-10-15T20:07:59.365Z,38.77
2017-10-15T20:10:26.794Z,40.47
2017-10-15T20:12:54.984Z,38.47
2017-10-15T20:15:22.433Z,38.10
2017-10-15T20:17:50.621Z,35.87
2017-10-15T20:20:18.056Z,36.43
2017-10-15T20:22:46.259Z,37.67
2017-10-15T20:25:13.697Z,32.80
2017-10-15T20:27:41.894Z,29.70
2017-10-15T20:30:09.340Z,29.30
2017-10-15T20:32:36.773Z,34.03
2017-10-15T20:35:04.968Z,30.17
2017-10-15T20:37:32.403Z,31.07
2017-10-15T20:40:00.598Z,29.37
2017-10-15T20:42:28.033Z,31.40
2017-10-15T20:44:56.245Z,29.63
2017-10-15T20:47:23.668Z,29.63
2017-10-15T20:49:51.881Z,29.73
2017-10-15T20:52:19.338Z,31.03
2017-10-15T20:54:46.772Z,29.20
2017-10-15T20:57:14.204Z,28.83
2017-10-15T20:59:41.641Z,27.87
2017-10-15T21:02:09.071Z,28.73
2017-10-15T21:04:36.525Z,27.27
2017-10-15T21:07:03.956Z,31.17
2017-10-15T21:09:31.384Z,26.70
2017-10-15T21:11:58.839Z,29.10
2017-10-15T21:14:26.272Z,28.10
2017-10-15T21:16:53.706Z,27.27
2017-10-15T21:19:21.147Z,26.20
2017-10-15T21:21:48.581Z,27.37
2017-10-15T21:24:16.771Z,29.40
2017-10-15T21:26:44.237Z,29.23
2017-10-15T21:29:11.660Z,31.00
2017-10-15T21:31:39.097Z,32.13
2017-10-15T21:34:06.530Z,33.60
2017-10-15T21:36:33.978Z,30.33
2017-10-15T21:39:01.417Z,28.13
2017-10-15T21:41:28.857Z,28.40
2017-10-15T21:43:57.065Z,28.57
2017-10-15T21:46:24.508Z,29.20
2017-10-15T21:48:51.940Z,27.90
2017-10-15T21:51:20.154Z,27.80
2017-10-15T21:53:47.581Z,29.57
2017-10-15T21:56:15.801Z,28.53
2017-10-15T21:58:43.227Z,27.57
2017-10-15T22:01:10.670Z,24.77
2017-10-15T22:03:38.874Z,29.73
2017-10-15T22:06:06.333Z,25.90
2017-10-15T22:08:33.771Z,26.03
2017-10-15T22:11:01.196Z,24.93
2017-10-15T22:13:29.409Z,26.07
2017-10-15T22:15:56.856Z,34.20
2017-10-15T22:18:45.036Z,33.27
2017-10-15T22:21:18.139Z,32.47
2017-10-15T22:23:45.580Z,41.47
2017-10-15T22:26:13.788Z,44.10
2017-10-15T22:28:41.220Z,39.50
2017-10-15T22:31:08.672Z,43.43
2017-10-15T22:33:36.111Z,54.23
2017-10-15T22:36:03.543Z,48.33
2017-10-15T22:38:30.981Z,65.63
2017-10-15T22:40:59.181Z,47.27
2017-10-15T22:43:26.607Z,49.33
2017-10-15T22:45:54.813Z,46.03
2017-10-15T22:48:22.239Z,36.03
2017-10-15T22:50:50.444Z,37.63
2017-10-15T22:53:17.884Z,43.23
2017-10-15T22:55:46.092Z,39.37
2017-10-15T22:58:13.530Z,36.40
2017-10-15T23:00:40.961Z,39.17
2017-10-15T23:03:09.167Z,34.80
2017-10-15T23:05:36.604Z,35.33
2017-10-15T23:08:04.820Z,36.70
2017-10-15T23:10:32.254Z,35.93
2017-10-15T23:13:01.636Z,33.47
2017-10-15T23:15:29.883Z,33.90
2017-10-15T23:17:57.289Z,37.07
2017-10-15T23:20:24.725Z,36.60
2017-10-15T23:22:52.928Z,36.70
2017-10-15T23:25:20.374Z,41.53
2017-10-15T23:27:47.807Z,53.53
2017-10-15T23:30:16.007Z,38.70
2017-10-15T23:32:43.440Z,35.60
2017-10-15T23:35:11.639Z,38.50
2017-10-15T23:37:39.063Z,39.43
2017-10-15T23:40:07.279Z,53.57
2017-10-15T23:42:34.707Z,39.97
2017-10-15T23:45:02.921Z,38.83
2017-10-15T23:47:30.357Z,39.13
2017-10-15T23:49:57.795Z,38.50
2017-10-15T23:52:26.002Z,34.03
2017-10-15T23:54:53.450Z,39.03
2017-10-15T23:57:20.872Z,36.30
2017-10-15T23:59:49.089Z,38.63
